Etretat — FIDP — position and weather

sailwx.info

Track history (hours):
 
Tides and Currents Weather Stations Pressure Air Temp Water Temp Dewpoint Dewpoint Depression Visibility Wind Speed Wind Dir Waves Ship Positions

Etretat

Last reported at 2015-Mar-29 11:33 UTC. Time now 2015-Mar-29 12:34 UTC.
Position N 49°29' E 000°06'.

Length 187 m; draft 6 m.

Type: Ship. MMSI: 228022900.

Date/timePositionNaut miles runAvg speedWind from/ knotsBaromVisibWave heightAir tempDewpointWater temp
2015-Mar-29 11:33N 49°29' E 000°06'0 0.0
2015-Mar-29 10:33N 49°29' E 000°06'0 0.0
2015-Mar-29 09:33N 49°29' E 000°06'0 0.0
2015-Mar-29 08:33N 49°29' E 000°06'0 0.0
2015-Mar-29 07:33N 49°29' E 000°06'0 0.0
2015-Mar-29 06:33N 49°29' E 000°06'0 0.0
2015-Mar-29 05:33N 49°29' E 000°06'0 0.0
2015-Mar-29 04:33N 49°29' E 000°06'0 0.0
2015-Mar-29 03:33N 49°29' E 000°06'0 0.0
2015-Mar-29 02:33N 49°29' E 000°06'0 0.0
2015-Mar-29 01:33N 49°29' E 000°06'0 0.0
2015-Mar-29 00:33N 49°29' E 000°06'0 0.0
2015-Mar-28 23:33N 49°29' E 000°06'0 0.0
2015-Mar-28 22:33N 49°29' E 000°06'0 0.0
2015-Mar-28 21:34N 49°29' E 000°06'0 0.0
2015-Mar-28 20:33N 49°29' E 000°06'0 0.0
2015-Mar-28 19:33N 49°29' E 000°06'0 0.0
2015-Mar-28 18:33N 49°29' E 000°06'0 0.0
2015-Mar-28 17:33N 49°29' E 000°06'0 0.0
2015-Mar-28 16:33N 49°29' E 000°06'0 0.0
2015-Mar-28 15:33N 49°29' E 000°06'0 0.0
2015-Mar-28 14:33N 49°29' E 000°06'0 0.0
2015-Mar-28 13:33N 49°29' E 000°06'0 0.0
2015-Mar-28 12:33N 49°29' E 000°06'0 0.0
2015-Mar-28 11:33N 49°29' E 000°06'0 0.0
2015-Mar-28 10:33N 49°29' E 000°06'0 0.2
2015-Mar-28 09:33N 49°29' E 000°07'0 0.1
2015-Mar-28 08:33N 49°29' E 000°07'0 0.0
2015-Mar-28 07:33N 49°29' E 000°07'8 7.5
2015-Mar-28 06:33N 49°34' W 000°02'1313.4
2015-Mar-28 05:33N 49°46' W 000°12'5513.4
2015-Mar-28 01:27N 50°35' W 000°51'1112.7
2015-Mar-28 00:34N 50°44' W 001°03'5 5.4
2015-Mar-27 23:33N 50°49' W 001°06'0 0.0
2015-Mar-27 22:33N 50°49' W 001°06'0 0.0
2015-Mar-27 21:33N 50°49' W 001°06'9 9.2
2015-Mar-27 20:34N 50°41' W 000°57'6019.9
2015-Mar-27 17:33N 49°48' W 000°14'2120.6
2015-Mar-27 16:33N 49°30' E 000°01'4 3.8
2015-Mar-27 15:33N 49°29' E 000°07'0 0.0
2015-Mar-27 14:33N 49°29' E 000°07'0 0.0
2015-Mar-27 13:33N 49°29' E 000°07'0 0.0
2015-Mar-27 12:34N 49°29' E 000°07'0 0.0
2015-Mar-27 11:34N 49°29' E 000°07'0 0.0
2015-Mar-27 10:33N 49°29' E 000°07'0 0.0
2015-Mar-27 09:33N 49°29' E 000°07'0 0.0
2015-Mar-27 08:33N 49°29' E 000°07'0 0.0
2015-Mar-27 07:33N 49°29' E 000°07'1 1.0
2015-Mar-27 06:34N 49°29' E 000°05'1514.5
2015-Mar-27 05:34N 49°41' W 000°08'5513.0
2015-Mar-27 01:19N 50°30' W 000°46'1113.9
2015-Mar-27 00:33N 50°39' W 000°55'1211.7
2015-Mar-26 23:33N 50°48' W 001°07'1 0.9
2015-Mar-26 22:33N 50°49' W 001°06'0 0.0
2015-Mar-26 21:33N 50°49' W 001°06'10 9.8
2015-Mar-26 20:33N 50°41' W 000°57'1919.2
2015-Mar-26 19:33N 50°24' W 000°42'4019.8
2015-Mar-26 17:33N 49°49' W 000°14'2020.1
2015-Mar-26 16:33N 49°31' E 000°01'4 4.3
2015-Mar-26 15:34N 49°29' E 000°07'0 0.0
2015-Mar-26 14:33N 49°29' E 000°07'0 0.0
2015-Mar-26 13:34N 49°29' E 000°07'0 0.0
2015-Mar-26 12:34N 49°29' E 000°07'0 0.0
2015-Mar-26 11:34N 49°29' E 000°07'0 0.0
2015-Mar-26 10:34N 49°29' E 000°07'0 0.0
2015-Mar-26 09:34N 49°29' E 000°07'0 0.0
2015-Mar-26 08:34N 49°29' E 000°07'0 0.0
2015-Mar-26 07:34N 49°29' E 000°07'5 5.2
2015-Mar-26 06:34N 49°32' W 000°00'1515.3
2015-Mar-26 05:33N 49°46' W 000°10'5012.5
2015-Mar-26 01:33N 50°30' W 000°48'1313.6
2015-Mar-26 00:34N 50°42' W 000°57'9 8.6
2015-Mar-25 23:33N 50°49' W 001°06'0 0.0
2015-Mar-25 22:33N 50°49' W 001°06'0 0.0
2015-Mar-25 21:33N 50°49' W 001°06'9 9.2
2015-Mar-25 20:33N 50°41' W 000°57'5819.0
2015-Mar-25 17:31N 49°51' W 000°13'1920.0
2015-Mar-25 16:33N 49°33' W 000°01'7 6.7
2015-Mar-25 15:33N 49°29' E 000°07'0 0.0
2015-Mar-25 14:33N 49°29' E 000°07'0 0.0
2015-Mar-25 13:34N 49°29' E 000°07'0 0.0
2015-Mar-25 12:34N 49°29' E 000°07'0 0.0
2015-Mar-25 11:33N 49°29' E 000°07'0 0.0
2015-Mar-25 10:33N 49°29' E 000°07'0 0.0
2015-Mar-25 09:33N 49°29' E 000°07'0 0.0
2015-Mar-25 08:34N 49°29' E 000°07'0 0.2
2015-Mar-25 07:34N 49°29' E 000°07'1514.9
2015-Mar-25 06:34N 49°40' W 000°09'6312.5
2015-Mar-25 01:34N 50°36' W 000°53'1413.7
2015-Mar-25 00:33N 50°47' W 001°06'2 1.8
2015-Mar-24 23:33N 50°49' W 001°06'0 0.0
2015-Mar-24 22:33N 50°49' W 001°06'0 0.0
2015-Mar-24 21:33N 50°49' W 001°06'9 8.6
2015-Mar-24 20:33N 50°42' W 000°58'2018.4
2015-Mar-24 19:28N 50°22' W 001°06'5 0.3
2015-Mar-24 02:10N 50°24' W 001°14'610.1
2015-Mar-24 01:33N 50°30' W 001°11'1212.1
2015-Mar-24 00:33N 50°41' W 001°03'8 7.8
2015-Mar-23 23:33N 50°49' W 001°06'0 0.0
2015-Mar-23 22:33N 50°49' W 001°06'0 0.1
2015-Mar-23 21:33N 50°49' W 001°06'1111.2
2015-Mar-23 20:34N 50°40' W 000°55'5819.3
2015-Mar-23 17:34N 49°48' W 000°15'2019.6
2015-Mar-23 16:34N 49°31' E 000°00'5 4.6
2015-Mar-23 15:33N 49°29' E 000°07'0 0.0
2015-Mar-23 14:33N 49°29' E 000°07'0 0.0
2015-Mar-23 13:33N 49°29' E 000°07'0 0.0
2015-Mar-23 12:33N 49°29' E 000°07'0 0.0
2015-Mar-23 11:33N 49°29' E 000°07'0 0.0
2015-Mar-23 10:33N 49°29' E 000°07'0 0.2
2015-Mar-23 09:33N 49°29' E 000°06'0 0.0
2015-Mar-23 08:33N 49°29' E 000°06'0 0.0
2015-Mar-23 07:33N 49°29' E 000°06'0 0.0
2015-Mar-23 06:33N 49°29' E 000°06'0 0.0
2015-Mar-23 05:33N 49°29' E 000°06'0 0.0
2015-Mar-23 04:33N 49°29' E 000°06'0 0.0
2015-Mar-23 03:33N 49°29' E 000°06'0 0.0
2015-Mar-23 02:33N 49°29' E 000°06'0 0.0
2015-Mar-23 01:33N 49°29' E 000°06'0 0.0
2015-Mar-23 00:33N 49°29' E 000°06'0 0.0
2015-Mar-22 23:33N 49°29' E 000°06'0 0.0
2015-Mar-22 22:33N 49°29' E 000°06'0 0.0
2015-Mar-22 21:33N 49°29' E 000°06'0 0.0
2015-Mar-22 20:33N 49°29' E 000°06'0 0.0
2015-Mar-22 19:33N 49°29' E 000°06'0 0.0
2015-Mar-22 18:33N 49°29' E 000°06'0 0.0
2015-Mar-22 17:33N 49°29' E 000°06'0 0.0
2015-Mar-22 16:33N 49°29' E 000°06'0 0.0
2015-Mar-22 15:33N 49°29' E 000°06'0 0.0
2015-Mar-22 14:33N 49°29' E 000°06'0 0.0
2015-Mar-22 13:33N 49°29' E 000°06'0 0.0
2015-Mar-22 12:33N 49°29' E 000°06'0 0.0
2015-Mar-22 11:33N 49°29' E 000°06'0 0.0
2015-Mar-22 10:33N 49°29' E 000°06'0 0.0
2015-Mar-22 09:33N 49°29' E 000°06'0 0.0
2015-Mar-22 08:33N 49°29' E 000°06'0 0.0
2015-Mar-22 07:33N 49°29' E 000°06'0 0.0
2015-Mar-22 06:33N 49°29' E 000°06'0 0.0
2015-Mar-22 05:33N 49°29' E 000°06'0 0.0
2015-Mar-22 04:33N 49°29' E 000°06'0 0.0
2015-Mar-22 03:33N 49°29' E 000°06'0 0.0
2015-Mar-22 02:33N 49°29' E 000°06'0 0.0
2015-Mar-22 01:33N 49°29' E 000°06'0 0.0
2015-Mar-22 00:33N 49°29' E 000°06'0 0.0
2015-Mar-21 23:33N 49°29' E 000°06'0 0.0
2015-Mar-21 22:33N 49°29' E 000°06'0 0.0
2015-Mar-21 21:33N 49°29' E 000°06'0 0.0
2015-Mar-21 20:33N 49°29' E 000°06'0 0.0
2015-Mar-21 19:33N 49°29' E 000°06'0 0.0
2015-Mar-21 18:33N 49°29' E 000°06'0 0.0
2015-Mar-21 17:33N 49°29' E 000°06'0 0.0
2015-Mar-21 16:33N 49°29' E 000°06'0 0.0
2015-Mar-21 15:33N 49°29' E 000°06'0 0.0
2015-Mar-21 14:33N 49°29' E 000°06'0 0.0
2015-Mar-21 13:33N 49°29' E 000°06'0 0.0
2015-Mar-21 12:33N 49°29' E 000°06'0 0.0
2015-Mar-21 11:33N 49°29' E 000°06'0 0.0
2015-Mar-21 10:33N 49°29' E 000°06'0 0.2
2015-Mar-21 09:33N 49°29' E 000°07'0 0.0
2015-Mar-21 08:33N 49°29' E 000°07'0 0.0
2015-Mar-21 07:33N 49°29' E 000°07'1111.1
2015-Mar-21 06:33N 49°37' W 000°05'6521.6
2015-Mar-21 03:33N 50°32' W 000°58'3 2.8
2015-Mar-21 02:33N 50°34' W 000°56'3 3.0
2015-Mar-21 01:33N 50°35' W 000°51'6 5.6
2015-Mar-21 00:33N 50°41' W 000°55'1111.0
2015-Mar-20 23:34N 50°48' W 001°07'1 0.7
2015-Mar-20 22:33N 50°49' W 001°06'0 0.1
2015-Mar-20 21:33N 50°49' W 001°06'1212.3
2015-Mar-20 20:34N 50°39' W 000°55'4620.1
2015-Mar-20 18:15N 49°58' W 000°21'1420.0
2015-Mar-20 17:34N 49°45' W 000°11'1918.7
2015-Mar-20 16:34N 49°29' E 000°04'2 1.9
2015-Mar-20 15:33N 49°29' E 000°07'0 0.0
2015-Mar-20 14:34N 49°29' E 000°07'0 0.0
2015-Mar-20 13:33N 49°29' E 000°07'0 0.0
2015-Mar-20 12:33N 49°29' E 000°07'0 0.0
2015-Mar-20 11:33N 49°29' E 000°07'0 0.0
2015-Mar-20 10:33N 49°29' E 000°07'0 0.0
2015-Mar-20 09:33N 49°29' E 000°07'0 0.0
2015-Mar-20 08:33N 49°29' E 000°07'0 0.0
2015-Mar-20 07:33N 49°29' E 000°07'8 7.6
2015-Mar-20 06:33N 49°34' W 000°02'1717.1
2015-Mar-20 05:33N 49°49' W 000°15'4313.2
2015-Mar-20 02:20N 50°26' W 000°48'1012.7
2015-Mar-20 01:33N 50°35' W 000°53'1212.1
2015-Mar-20 00:33N 50°45' W 001°05'4 4.1
2015-Mar-19 23:33N 50°49' W 001°06'0 0.0
2015-Mar-19 22:33N 50°49' W 001°06'0 0.1
2015-Mar-19 21:33N 50°49' W 001°06'1111.1
2015-Mar-19 20:34N 50°38' W 000°59'  
Track history (hours):
 
Tides and Currents Weather Stations Pressure Air Temp Water Temp Dewpoint Dewpoint Depression Visibility Wind Speed Wind Dir Waves Ship Positions

Etretat

Last reported at 2015-Mar-29 11:33 UTC. Time now 2015-Mar-29 12:34 UTC.
Position N 49°29' E 000°06'.

Length 187 m; draft 6 m.

Type: Ship. MMSI: 228022900.

Date/timePositionNaut miles runAvg speedWind from/ knotsBaromVisibWave heightAir tempDewpointWater temp
2015-Mar-29 11:33N 49°29' E 000°06'0 0.0
2015-Mar-29 10:33N 49°29' E 000°06'0 0.0
2015-Mar-29 09:33N 49°29' E 000°06'0 0.0
2015-Mar-29 08:33N 49°29' E 000°06'0 0.0
2015-Mar-29 07:33N 49°29' E 000°06'0 0.0
2015-Mar-29 06:33N 49°29' E 000°06'0 0.0
2015-Mar-29 05:33N 49°29' E 000°06'0 0.0
2015-Mar-29 04:33N 49°29' E 000°06'0 0.0
2015-Mar-29 03:33N 49°29' E 000°06'0 0.0
2015-Mar-29 02:33N 49°29' E 000°06'0 0.0
2015-Mar-29 01:33N 49°29' E 000°06'0 0.0
2015-Mar-29 00:33N 49°29' E 000°06'0 0.0
2015-Mar-28 23:33N 49°29' E 000°06'0 0.0
2015-Mar-28 22:33N 49°29' E 000°06'0 0.0
2015-Mar-28 21:34N 49°29' E 000°06'0 0.0
2015-Mar-28 20:33N 49°29' E 000°06'0 0.0
2015-Mar-28 19:33N 49°29' E 000°06'0 0.0
2015-Mar-28 18:33N 49°29' E 000°06'0 0.0
2015-Mar-28 17:33N 49°29' E 000°06'0 0.0
2015-Mar-28 16:33N 49°29' E 000°06'0 0.0
2015-Mar-28 15:33N 49°29' E 000°06'0 0.0
2015-Mar-28 14:33N 49°29' E 000°06'0 0.0
2015-Mar-28 13:33N 49°29' E 000°06'0 0.0
2015-Mar-28 12:33N 49°29' E 000°06'0 0.0
2015-Mar-28 11:33N 49°29' E 000°06'0 0.0
2015-Mar-28 10:33N 49°29' E 000°06'0 0.2
2015-Mar-28 09:33N 49°29' E 000°07'0 0.1
2015-Mar-28 08:33N 49°29' E 000°07'0 0.0
2015-Mar-28 07:33N 49°29' E 000°07'8 7.5
2015-Mar-28 06:33N 49°34' W 000°02'1313.4
2015-Mar-28 05:33N 49°46' W 000°12'5513.4
2015-Mar-28 01:27N 50°35' W 000°51'1112.7
2015-Mar-28 00:34N 50°44' W 001°03'5 5.4
2015-Mar-27 23:33N 50°49' W 001°06'0 0.0
2015-Mar-27 22:33N 50°49' W 001°06'0 0.0
2015-Mar-27 21:33N 50°49' W 001°06'9 9.2
2015-Mar-27 20:34N 50°41' W 000°57'6019.9
2015-Mar-27 17:33N 49°48' W 000°14'2120.6
2015-Mar-27 16:33N 49°30' E 000°01'4 3.8
2015-Mar-27 15:33N 49°29' E 000°07'0 0.0
2015-Mar-27 14:33N 49°29' E 000°07'0 0.0
2015-Mar-27 13:33N 49°29' E 000°07'0 0.0
2015-Mar-27 12:34N 49°29' E 000°07'0 0.0
2015-Mar-27 11:34N 49°29' E 000°07'0 0.0
2015-Mar-27 10:33N 49°29' E 000°07'0 0.0
2015-Mar-27 09:33N 49°29' E 000°07'0 0.0
2015-Mar-27 08:33N 49°29' E 000°07'0 0.0
2015-Mar-27 07:33N 49°29' E 000°07'1 1.0
2015-Mar-27 06:34N 49°29' E 000°05'1514.5
2015-Mar-27 05:34N 49°41' W 000°08'5513.0
2015-Mar-27 01:19N 50°30' W 000°46'1113.9
2015-Mar-27 00:33N 50°39' W 000°55'1211.7
2015-Mar-26 23:33N 50°48' W 001°07'1 0.9
2015-Mar-26 22:33N 50°49' W 001°06'0 0.0
2015-Mar-26 21:33N 50°49' W 001°06'10 9.8
2015-Mar-26 20:33N 50°41' W 000°57'1919.2
2015-Mar-26 19:33N 50°24' W 000°42'4019.8
2015-Mar-26 17:33N 49°49' W 000°14'2020.1
2015-Mar-26 16:33N 49°31' E 000°01'4 4.3
2015-Mar-26 15:34N 49°29' E 000°07'0 0.0
2015-Mar-26 14:33N 49°29' E 000°07'0 0.0
2015-Mar-26 13:34N 49°29' E 000°07'0 0.0
2015-Mar-26 12:34N 49°29' E 000°07'0 0.0
2015-Mar-26 11:34N 49°29' E 000°07'0 0.0
2015-Mar-26 10:34N 49°29' E 000°07'0 0.0
2015-Mar-26 09:34N 49°29' E 000°07'0 0.0
2015-Mar-26 08:34N 49°29' E 000°07'0 0.0
2015-Mar-26 07:34N 49°29' E 000°07'5 5.2
2015-Mar-26 06:34N 49°32' W 000°00'1515.3
2015-Mar-26 05:33N 49°46' W 000°10'5012.5
2015-Mar-26 01:33N 50°30' W 000°48'1313.6
2015-Mar-26 00:34N 50°42' W 000°57'9 8.6
2015-Mar-25 23:33N 50°49' W 001°06'0 0.0
2015-Mar-25 22:33N 50°49' W 001°06'0 0.0
2015-Mar-25 21:33N 50°49' W 001°06'9 9.2
2015-Mar-25 20:33N 50°41' W 000°57'5819.0
2015-Mar-25 17:31N 49°51' W 000°13'1920.0
2015-Mar-25 16:33N 49°33' W 000°01'7 6.7
2015-Mar-25 15:33N 49°29' E 000°07'0 0.0
2015-Mar-25 14:33N 49°29' E 000°07'0 0.0
2015-Mar-25 13:34N 49°29' E 000°07'0 0.0
2015-Mar-25 12:34N 49°29' E 000°07'0 0.0
2015-Mar-25 11:33N 49°29' E 000°07'0 0.0
2015-Mar-25 10:33N 49°29' E 000°07'0 0.0
2015-Mar-25 09:33N 49°29' E 000°07'0 0.0
2015-Mar-25 08:34N 49°29' E 000°07'0 0.2
2015-Mar-25 07:34N 49°29' E 000°07'1514.9
2015-Mar-25 06:34N 49°40' W 000°09'6312.5
2015-Mar-25 01:34N 50°36' W 000°53'1413.7
2015-Mar-25 00:33N 50°47' W 001°06'2 1.8
2015-Mar-24 23:33N 50°49' W 001°06'0 0.0
2015-Mar-24 22:33N 50°49' W 001°06'0 0.0
2015-Mar-24 21:33N 50°49' W 001°06'9 8.6
2015-Mar-24 20:33N 50°42' W 000°58'2018.4
2015-Mar-24 19:28N 50°22' W 001°06'5 0.3
2015-Mar-24 02:10N 50°24' W 001°14'610.1
2015-Mar-24 01:33N 50°30' W 001°11'1212.1
2015-Mar-24 00:33N 50°41' W 001°03'8 7.8
2015-Mar-23 23:33N 50°49' W 001°06'0 0.0
2015-Mar-23 22:33N 50°49' W 001°06'0 0.1
2015-Mar-23 21:33N 50°49' W 001°06'1111.2
2015-Mar-23 20:34N 50°40' W 000°55'5819.3
2015-Mar-23 17:34N 49°48' W 000°15'2019.6
2015-Mar-23 16:34N 49°31' E 000°00'5 4.6
2015-Mar-23 15:33N 49°29' E 000°07'0 0.0
2015-Mar-23 14:33N 49°29' E 000°07'0 0.0
2015-Mar-23 13:33N 49°29' E 000°07'0 0.0
2015-Mar-23 12:33N 49°29' E 000°07'0 0.0
2015-Mar-23 11:33N 49°29' E 000°07'0 0.0
2015-Mar-23 10:33N 49°29' E 000°07'0 0.2
2015-Mar-23 09:33N 49°29' E 000°06'0 0.0
2015-Mar-23 08:33N 49°29' E 000°06'0 0.0
2015-Mar-23 07:33N 49°29' E 000°06'0 0.0
2015-Mar-23 06:33N 49°29' E 000°06'0 0.0
2015-Mar-23 05:33N 49°29' E 000°06'0 0.0
2015-Mar-23 04:33N 49°29' E 000°06'0 0.0
2015-Mar-23 03:33N 49°29' E 000°06'0 0.0
2015-Mar-23 02:33N 49°29' E 000°06'0 0.0
2015-Mar-23 01:33N 49°29' E 000°06'0 0.0
2015-Mar-23 00:33N 49°29' E 000°06'0 0.0
2015-Mar-22 23:33N 49°29' E 000°06'0 0.0
2015-Mar-22 22:33N 49°29' E 000°06'0 0.0
2015-Mar-22 21:33N 49°29' E 000°06'0 0.0
2015-Mar-22 20:33N 49°29' E 000°06'0 0.0
2015-Mar-22 19:33N 49°29' E 000°06'0 0.0
2015-Mar-22 18:33N 49°29' E 000°06'0 0.0
2015-Mar-22 17:33N 49°29' E 000°06'0 0.0
2015-Mar-22 16:33N 49°29' E 000°06'0 0.0
2015-Mar-22 15:33N 49°29' E 000°06'0 0.0
2015-Mar-22 14:33N 49°29' E 000°06'0 0.0
2015-Mar-22 13:33N 49°29' E 000°06'0 0.0
2015-Mar-22 12:33N 49°29' E 000°06'0 0.0
2015-Mar-22 11:33N 49°29' E 000°06'0 0.0
2015-Mar-22 10:33N 49°29' E 000°06'0 0.0
2015-Mar-22 09:33N 49°29' E 000°06'0 0.0
2015-Mar-22 08:33N 49°29' E 000°06'0 0.0
2015-Mar-22 07:33N 49°29' E 000°06'0 0.0
2015-Mar-22 06:33N 49°29' E 000°06'0 0.0
2015-Mar-22 05:33N 49°29' E 000°06'0 0.0
2015-Mar-22 04:33N 49°29' E 000°06'0 0.0
2015-Mar-22 03:33N 49°29' E 000°06'0 0.0
2015-Mar-22 02:33N 49°29' E 000°06'0 0.0
2015-Mar-22 01:33N 49°29' E 000°06'0 0.0
2015-Mar-22 00:33N 49°29' E 000°06'0 0.0
2015-Mar-21 23:33N 49°29' E 000°06'0 0.0
2015-Mar-21 22:33N 49°29' E 000°06'0 0.0
2015-Mar-21 21:33N 49°29' E 000°06'0 0.0
2015-Mar-21 20:33N 49°29' E 000°06'0 0.0
2015-Mar-21 19:33N 49°29' E 000°06'0 0.0
2015-Mar-21 18:33N 49°29' E 000°06'0 0.0
2015-Mar-21 17:33N 49°29' E 000°06'0 0.0
2015-Mar-21 16:33N 49°29' E 000°06'0 0.0
2015-Mar-21 15:33N 49°29' E 000°06'0 0.0
2015-Mar-21 14:33N 49°29' E 000°06'0 0.0
2015-Mar-21 13:33N 49°29' E 000°06'0 0.0
2015-Mar-21 12:33N 49°29' E 000°06'0 0.0
2015-Mar-21 11:33N 49°29' E 000°06'0 0.0
2015-Mar-21 10:33N 49°29' E 000°06'0 0.2
2015-Mar-21 09:33N 49°29' E 000°07'0 0.0
2015-Mar-21 08:33N 49°29' E 000°07'0 0.0
2015-Mar-21 07:33N 49°29' E 000°07'1111.1
2015-Mar-21 06:33N 49°37' W 000°05'6521.6
2015-Mar-21 03:33N 50°32' W 000°58'3 2.8
2015-Mar-21 02:33N 50°34' W 000°56'3 3.0
2015-Mar-21 01:33N 50°35' W 000°51'6 5.6
2015-Mar-21 00:33N 50°41' W 000°55'1111.0
2015-Mar-20 23:34N 50°48' W 001°07'1 0.7
2015-Mar-20 22:33N 50°49' W 001°06'0 0.1
2015-Mar-20 21:33N 50°49' W 001°06'1212.3
2015-Mar-20 20:34N 50°39' W 000°55'4620.1
2015-Mar-20 18:15N 49°58' W 000°21'1420.0
2015-Mar-20 17:34N 49°45' W 000°11'1918.7
2015-Mar-20 16:34N 49°29' E 000°04'2 1.9
2015-Mar-20 15:33N 49°29' E 000°07'0 0.0
2015-Mar-20 14:34N 49°29' E 000°07'0 0.0
2015-Mar-20 13:33N 49°29' E 000°07'0 0.0
2015-Mar-20 12:33N 49°29' E 000°07'0 0.0
2015-Mar-20 11:33N 49°29' E 000°07'0 0.0
2015-Mar-20 10:33N 49°29' E 000°07'0 0.0
2015-Mar-20 09:33N 49°29' E 000°07'0 0.0
2015-Mar-20 08:33N 49°29' E 000°07'0 0.0
2015-Mar-20 07:33N 49°29' E 000°07'8 7.6
2015-Mar-20 06:33N 49°34' W 000°02'1717.1
2015-Mar-20 05:33N 49°49' W 000°15'4313.2
2015-Mar-20 02:20N 50°26' W 000°48'1012.7
2015-Mar-20 01:33N 50°35' W 000°53'1212.1
2015-Mar-20 00:33N 50°45' W 001°05'4 4.1
2015-Mar-19 23:33N 50°49' W 001°06'0 0.0
2015-Mar-19 22:33N 50°49' W 001°06'0 0.1
2015-Mar-19 21:33N 50°49' W 001°06'1111.1
2015-Mar-19 20:34N 50°38' W 000°59'  

Dump ship's entire track history